Snow/Ice From: 17-12-2017 10:00 Until: 18-12-2017 06:00 warning for: Snow/Ice Level: Yellow info button

Although rather usual in this region, locally or potentially dangerous phenomena are expected. (such as local winds, summer thunderstorms, rising streams or high waves) Be aware and pay attention to the latest weather updates, especially if you carry out activities exposed to weather or close to a stream or shoreline. 


Meteo18 Weather Cam more information Meteo18 Weather Cam


Thunder radar more information blitzortung!


warning for Snow/Ice more information rain snow radar


Visit our other weather sites:

Template documentation
and downloads

And another site



Weather Underground History page Text

Daily Summary for April 6, 2017 Units:  Both    English   Metric
« Previous Day
Next Day »
Daily Weekly Monthly Yearly Custom
  High: Low: Average:
Temperature: 53.6 °F /  12.0 °C 39.9 °F /  4.4 °C 46.9 °F /  8.3 °C
Dew Point: 42.1 °F /  5.6 °C 34.9 °F /  1.6 °C 38.3 °F /  3.5 °C
Humidity: 88 % 53 % 73 %
Wind Speed: 25 mph /  40.2 km/h - 7.5 mph /  12.1 km/h
Wind Gust: 26 mph /  41.8 km/h - -
Wind:- - ESE
Pressure: 30.4 in /  1028.3 hPa 30.3 in /  1027.0 hPa -
Precipitation: 0 in /  0.0 mm    
Historical Graphs
 
 
Tabular Data for April 6, 2017
Time Temperature Dew Point Pressure Wind Wind Speed Wind Gust Humidity Rainfall Rate (Hourly)
00:02 48 °F /  8.9 °C 41.9 °F /  5.5 °C 30.3 in /  1027.3 hPa NW 3 mph /  4.8 km/h 8 mph /  12.9 km/h 79 % 0 in /  0.0 mm
00:07 48 °F /  8.9 °C 41.9 °F /  5.5 °C 30.3 in /  1027.0 hPa NNW 5 mph /  8.0 km/h 10 mph /  16.1 km/h 79 % 0 in /  0.0 mm
00:12 48.2 °F /  9.0 °C 42.1 °F /  5.6 °C 30.3 in /  1027.3 hPa North 2 mph /  3.2 km/h 10 mph /  16.1 km/h 79 % 0 in /  0.0 mm
00:17 48.2 °F /  9.0 °C 42.1 °F /  5.6 °C 30.3 in /  1027.3 hPa NNE 2 mph /  3.2 km/h 9 mph /  14.5 km/h 79 % 0 in /  0.0 mm
00:22 48 °F /  8.9 °C 41.9 °F /  5.5 °C 30.3 in /  1027.3 hPa NE 2 mph /  3.2 km/h 10 mph /  16.1 km/h 79 % 0 in /  0.0 mm
00:27 48 °F /  8.9 °C 41.9 °F /  5.5 °C 30.3 in /  1027.3 hPa North 2 mph /  3.2 km/h 10 mph /  16.1 km/h 79 % 0 in /  0.0 mm
00:32 48 °F /  8.9 °C 41.5 °F /  5.3 °C 30.3 in /  1027.3 hPa NNW 2 mph /  3.2 km/h 9 mph /  14.5 km/h 78 % 0 in /  0.0 mm
00:42 48 °F /  8.9 °C 41.5 °F /  5.3 °C 30.3 in /  1027.3 hPa NNW 4 mph /  6.4 km/h 12 mph /  19.3 km/h 78 % 0 in /  0.0 mm
00:47 48.2 °F /  9.0 °C 41.7 °F /  5.4 °C 30.3 in /  1027.3 hPa NNE 3 mph /  4.8 km/h 12 mph /  19.3 km/h 78 % 0 in /  0.0 mm
00:52 48 °F /  8.9 °C 41.5 °F /  5.3 °C 30.3 in /  1027.3 hPa NNW 4 mph /  6.4 km/h 11 mph /  17.7 km/h 78 % 0 in /  0.0 mm
00:57 48 °F /  8.9 °C 41.5 °F /  5.3 °C 30.3 in /  1027.3 hPa North 4 mph /  6.4 km/h 10 mph /  16.1 km/h 78 % 0 in /  0.0 mm
01:02 48 °F /  8.9 °C 41.5 °F /  5.3 °C 30.3 in /  1027.3 hPa NNW 7 mph /  11.3 km/h 10 mph /  16.1 km/h 78 % 0 in /  0.0 mm
01:12 47.8 °F /  8.8 °C 41.4 °F /  5.2 °C 30.4 in /  1027.7 hPa NW 5 mph /  8.0 km/h 14 mph /  22.5 km/h 78 % 0 in /  0.0 mm
01:17 47.7 °F /  8.7 °C 41.2 °F /  5.1 °C 30.3 in /  1027.3 hPa North 9 mph /  14.5 km/h 14 mph /  22.5 km/h 78 % 0 in /  0.0 mm
01:22 47.7 °F /  8.7 °C 41.2 °F /  5.1 °C 30.4 in /  1027.7 hPa North 4 mph /  6.4 km/h 14 mph /  22.5 km/h 78 % 0 in /  0.0 mm
01:27 47.5 °F /  8.6 °C 41 °F /  5.0 °C 30.3 in /  1027.3 hPa NNE 3 mph /  4.8 km/h 14 mph /  22.5 km/h 78 % 0 in /  0.0 mm
01:32 47.5 °F /  8.6 °C 41.4 °F /  5.2 °C 30.3 in /  1027.3 hPa NNE 6 mph /  9.7 km/h 14 mph /  22.5 km/h 79 % 0 in /  0.0 mm
01:37 47.3 °F /  8.5 °C 41.2 °F /  5.1 °C 30.3 in /  1027.3 hPa NE 5 mph /  8.0 km/h 16 mph /  25.7 km/h 79 % 0 in /  0.0 mm
01:42 47.1 °F /  8.4 °C 41 °F /  5.0 °C 30.4 in /  1027.7 hPa North 11 mph /  17.7 km/h 16 mph /  25.7 km/h 79 % 0 in /  0.0 mm
01:47 47.1 °F /  8.4 °C 41 °F /  5.0 °C 30.3 in /  1027.3 hPa North 7 mph /  11.3 km/h 13 mph /  20.9 km/h 79 % 0 in /  0.0 mm
01:57 46.8 °F /  8.2 °C 41 °F /  5.0 °C 30.4 in /  1027.7 hPa North 11 mph /  17.7 km/h 13 mph /  20.9 km/h 80 % 0 in /  0.0 mm
02:02 46.8 °F /  8.2 °C 41 °F /  5.0 °C 30.4 in /  1027.7 hPa NNE 5 mph /  8.0 km/h 13 mph /  20.9 km/h 80 % 0 in /  0.0 mm
02:07 46.4 °F /  8.0 °C 40.6 °F /  4.8 °C 30.4 in /  1027.7 hPa NNW 7 mph /  11.3 km/h 14 mph /  22.5 km/h 80 % 0 in /  0.0 mm
02:12 46.2 °F /  7.9 °C 40.6 °F /  4.8 °C 30.4 in /  1027.7 hPa NNE 2 mph /  3.2 km/h 14 mph /  22.5 km/h 81 % 0 in /  0.0 mm
02:17 46 °F /  7.8 °C 40.8 °F /  4.9 °C 30.4 in /  1027.7 hPa North 8 mph /  12.9 km/h 14 mph /  22.5 km/h 82 % 0 in /  0.0 mm
02:22 45.9 °F /  7.7 °C 40.6 °F /  4.8 °C 30.4 in /  1027.7 hPa NNE 7 mph /  11.3 km/h 14 mph /  22.5 km/h 82 % 0 in /  0.0 mm
02:27 45.7 °F /  7.6 °C 40.5 °F /  4.7 °C 30.4 in /  1027.7 hPa NNW 14 mph /  22.5 km/h 14 mph /  22.5 km/h 82 % 0 in /  0.0 mm
02:32 45.3 °F /  7.4 °C 40.1 °F /  4.5 °C 30.4 in /  1027.7 hPa North 3 mph /  4.8 km/h 17 mph /  27.4 km/h 82 % 0 in /  0.0 mm
02:37 45.3 °F /  7.4 °C 40.5 °F /  4.7 °C 30.3 in /  1027.3 hPa NE 6 mph /  9.7 km/h 17 mph /  27.4 km/h 83 % 0 in /  0.0 mm
02:42 45.3 °F /  7.4 °C 40.5 °F /  4.7 °C 30.4 in /  1027.7 hPa NNE 2 mph /  3.2 km/h 17 mph /  27.4 km/h 83 % 0 in /  0.0 mm
02:47 45.1 °F /  7.3 °C 40.3 °F /  4.6 °C 30.3 in /  1027.3 hPa North 8 mph /  12.9 km/h 15 mph /  24.1 km/h 83 % 0 in /  0.0 mm
02:52 45.1 °F /  7.3 °C 40.3 °F /  4.6 °C 30.3 in /  1027.3 hPa NW 2 mph /  3.2 km/h 14 mph /  22.5 km/h 83 % 0 in /  0.0 mm
02:57 45 °F /  7.2 °C 40.1 °F /  4.5 °C 30.3 in /  1027.3 hPa NE 6 mph /  9.7 km/h 14 mph /  22.5 km/h 83 % 0 in /  0.0 mm
03:02 45 °F /  7.2 °C 40.1 °F /  4.5 °C 30.3 in /  1027.3 hPa NE 5 mph /  8.0 km/h 14 mph /  22.5 km/h 83 % 0 in /  0.0 mm
03:12 44.8 °F /  7.1 °C 39.9 °F /  4.4 °C 30.3 in /  1027.3 hPa North 6 mph /  9.7 km/h 16 mph /  25.7 km/h 83 % 0 in /  0.0 mm
03:17 44.6 °F /  7.0 °C 39.7 °F /  4.3 °C 30.3 in /  1027.3 hPa NNE 5 mph /  8.0 km/h 17 mph /  27.4 km/h 83 % 0 in /  0.0 mm
03:22 44.4 °F /  6.9 °C 39.6 °F /  4.2 °C 30.3 in /  1027.3 hPa NNE 4 mph /  6.4 km/h 17 mph /  27.4 km/h 83 % 0 in /  0.0 mm
03:27 44.2 °F /  6.8 °C 39.7 °F /  4.3 °C 30.3 in /  1027.3 hPa NNE 5 mph /  8.0 km/h 17 mph /  27.4 km/h 84 % 0 in /  0.0 mm
03:32 44.1 °F /  6.7 °C 39.6 °F /  4.2 °C 30.3 in /  1027.3 hPa NW 4 mph /  6.4 km/h 13 mph /  20.9 km/h 84 % 0 in /  0.0 mm
03:37 44.1 °F /  6.7 °C 39.6 °F /  4.2 °C 30.3 in /  1027.3 hPa NNW 3 mph /  4.8 km/h 11 mph /  17.7 km/h 84 % 0 in /  0.0 mm
03:42 43.9 °F /  6.6 °C 39.4 °F /  4.1 °C 30.3 in /  1027.3 hPa NNE 4 mph /  6.4 km/h 10 mph /  16.1 km/h 84 % 0 in /  0.0 mm
03:47 43.7 °F /  6.5 °C 39.6 °F /  4.2 °C 30.3 in /  1027.3 hPa NNE 4 mph /  6.4 km/h 13 mph /  20.9 km/h 85 % 0 in /  0.0 mm
03:52 43.5 °F /  6.4 °C 39.4 °F /  4.1 °C 30.3 in /  1027.0 hPa North 2 mph /  3.2 km/h 13 mph /  20.9 km/h 85 % 0 in /  0.0 mm
03:57 43.5 °F /  6.4 °C 39.4 °F /  4.1 °C 30.3 in /  1027.3 hPa NNW 6 mph /  9.7 km/h 11 mph /  17.7 km/h 85 % 0 in /  0.0 mm
04:02 43.3 °F /  6.3 °C 39.2 °F /  4.0 °C 30.3 in /  1027.3 hPa North 6 mph /  9.7 km/h 11 mph /  17.7 km/h 85 % 0 in /  0.0 mm
04:12 43.2 °F /  6.2 °C 39 °F /  3.9 °C 30.3 in /  1027.3 hPa NNE 4 mph /  6.4 km/h 12 mph /  19.3 km/h 85 % 0 in /  0.0 mm
04:17 43 °F /  6.1 °C 38.8 °F /  3.8 °C 30.3 in /  1027.3 hPa North 4 mph /  6.4 km/h 12 mph /  19.3 km/h 85 % 0 in /  0.0 mm
04:22 43 °F /  6.1 °C 38.8 °F /  3.8 °C 30.3 in /  1027.3 hPa North 4 mph /  6.4 km/h 11 mph /  17.7 km/h 85 % 0 in /  0.0 mm
04:27 42.6 °F /  5.9 °C 38.7 °F /  3.7 °C 30.3 in /  1027.3 hPa NNW 5 mph /  8.0 km/h 11 mph /  17.7 km/h 86 % 0 in /  0.0 mm
04:32 42.6 °F /  5.9 °C 38.7 °F /  3.7 °C 30.3 in /  1027.3 hPa NNW 5 mph /  8.0 km/h 11 mph /  17.7 km/h 86 % 0 in /  0.0 mm
04:37 42.4 °F /  5.8 °C 38.5 °F /  3.6 °C 30.3 in /  1027.0 hPa North 5 mph /  8.0 km/h 12 mph /  19.3 km/h 86 % 0 in /  0.0 mm
04:42 42.3 °F /  5.7 °C 38.3 °F /  3.5 °C 30.3 in /  1027.0 hPa NNE 2 mph /  3.2 km/h 12 mph /  19.3 km/h 86 % 0 in /  0.0 mm
04:47 42.3 °F /  5.7 °C 38.3 °F /  3.5 °C 30.3 in /  1027.0 hPa NNE 6 mph /  9.7 km/h 12 mph /  19.3 km/h 86 % 0 in /  0.0 mm
04:52 42.1 °F /  5.6 °C 38.1 °F /  3.4 °C 30.3 in /  1027.0 hPa NNW 2 mph /  3.2 km/h 10 mph /  16.1 km/h 86 % 0 in /  0.0 mm
04:57 41.9 °F /  5.5 °C 37.9 °F /  3.3 °C 30.3 in /  1027.0 hPa NNE 9 mph /  14.5 km/h 10 mph /  16.1 km/h 86 % 0 in /  0.0 mm
05:02 41.9 °F /  5.5 °C 37.9 °F /  3.3 °C 30.3 in /  1027.0 hPa NW 2 mph /  3.2 km/h 13 mph /  20.9 km/h 86 % 0 in /  0.0 mm
05:07 41.7 °F /  5.4 °C 37.8 °F /  3.2 °C 30.3 in /  1027.0 hPa NNE 10 mph /  16.1 km/h 13 mph /  20.9 km/h 86 % 0 in /  0.0 mm
05:12 41.9 °F /  5.5 °C 37.8 °F /  3.2 °C 30.3 in /  1027.0 hPa NNW 6 mph /  9.7 km/h 13 mph /  20.9 km/h 85 % 0 in /  0.0 mm
05:17 41.7 °F /  5.4 °C 37.6 °F /  3.1 °C 30.3 in /  1027.0 hPa North 4 mph /  6.4 km/h 12 mph /  19.3 km/h 85 % 0 in /  0.0 mm
05:22 41.7 °F /  5.4 °C 37.6 °F /  3.1 °C 30.3 in /  1027.0 hPa North 5 mph /  8.0 km/h 15 mph /  24.1 km/h 85 % 0 in /  0.0 mm
05:32 41.5 °F /  5.3 °C 37.4 °F /  3.0 °C 30.3 in /  1027.0 hPa NNE 5 mph /  8.0 km/h 15 mph /  24.1 km/h 85 % 0 in /  0.0 mm
05:37 41.4 °F /  5.2 °C 37.2 °F /  2.9 °C 30.3 in /  1027.0 hPa NNE 7 mph /  11.3 km/h 14 mph /  22.5 km/h 85 % 0 in /  0.0 mm
05:42 41.4 °F /  5.2 °C 37.2 °F /  2.9 °C 30.3 in /  1027.0 hPa ENE 3 mph /  4.8 km/h 14 mph /  22.5 km/h 85 % 0 in /  0.0 mm
05:47 41.2 °F /  5.1 °C 37 °F /  2.8 °C 30.3 in /  1027.0 hPa North 5 mph /  8.0 km/h 14 mph /  22.5 km/h 85 % 0 in /  0.0 mm
05:52 41.4 °F /  5.2 °C 37.2 °F /  2.9 °C 30.3 in /  1027.0 hPa ENE 7 mph /  11.3 km/h 14 mph /  22.5 km/h 85 % 0 in /  0.0 mm
05:57 41.2 °F /  5.1 °C 37 °F /  2.8 °C 30.3 in /  1027.0 hPa NNE 8 mph /  12.9 km/h 12 mph /  19.3 km/h 85 % 0 in /  0.0 mm
06:02 41.2 °F /  5.1 °C 37 °F /  2.8 °C 30.3 in /  1027.0 hPa NNW 4 mph /  6.4 km/h 12 mph /  19.3 km/h 85 % 0 in /  0.0 mm
06:07 40.8 °F /  4.9 °C 36.7 °F /  2.6 °C 30.3 in /  1027.0 hPa North 3 mph /  4.8 km/h 12 mph /  19.3 km/h 85 % 0 in /  0.0 mm
06:12 41 °F /  5.0 °C 37.2 °F /  2.9 °C 30.3 in /  1027.0 hPa North 6 mph /  9.7 km/h 12 mph /  19.3 km/h 86 % 0 in /  0.0 mm
06:17 41 °F /  5.0 °C 36.9 °F /  2.7 °C 30.3 in /  1027.0 hPa North 3 mph /  4.8 km/h 12 mph /  19.3 km/h 85 % 0 in /  0.0 mm
06:22 40.8 °F /  4.9 °C 36.7 °F /  2.6 °C 30.3 in /  1027.0 hPa NNE 4 mph /  6.4 km/h 15 mph /  24.1 km/h 85 % 0 in /  0.0 mm
06:27 40.8 °F /  4.9 °C 37 °F /  2.8 °C 30.3 in /  1027.0 hPa NNE 7 mph /  11.3 km/h 15 mph /  24.1 km/h 86 % 0 in /  0.0 mm
06:32 40.8 °F /  4.9 °C 37 °F /  2.8 °C 30.3 in /  1027.0 hPa NNE 11 mph /  17.7 km/h 15 mph /  24.1 km/h 86 % 0 in /  0.0 mm
06:37 40.8 °F /  4.9 °C 37 °F /  2.8 °C 30.3 in /  1027.0 hPa ENE 6 mph /  9.7 km/h 14 mph /  22.5 km/h 86 % 0 in /  0.0 mm
06:42 40.6 °F /  4.8 °C 36.9 °F /  2.7 °C 30.3 in /  1027.0 hPa NNE 4 mph /  6.4 km/h 14 mph /  22.5 km/h 86 % 0 in /  0.0 mm
06:47 40.6 °F /  4.8 °C 36.9 °F /  2.7 °C 30.3 in /  1027.3 hPa NW 6 mph /  9.7 km/h 14 mph /  22.5 km/h 86 % 0 in /  0.0 mm
06:52 40.5 °F /  4.7 °C 36.7 °F /  2.6 °C 30.3 in /  1027.0 hPa ENE 6 mph /  9.7 km/h 14 mph /  22.5 km/h 86 % 0 in /  0.0 mm
06:57 40.5 °F /  4.7 °C 36.7 °F /  2.6 °C 30.3 in /  1027.3 hPa NE 6 mph /  9.7 km/h 14 mph /  22.5 km/h 86 % 0 in /  0.0 mm
07:02 40.3 °F /  4.6 °C 36.7 °F /  2.6 °C 30.3 in /  1027.3 hPa NNW 5 mph /  8.0 km/h 11 mph /  17.7 km/h 87 % 0 in /  0.0 mm
07:07 40.3 °F /  4.6 °C 36.7 °F /  2.6 °C 30.3 in /  1027.3 hPa NW 6 mph /  9.7 km/h 13 mph /  20.9 km/h 87 % 0 in /  0.0 mm
07:12 40.1 °F /  4.5 °C 36.5 °F /  2.5 °C 30.3 in /  1027.3 hPa NNW 6 mph /  9.7 km/h 13 mph /  20.9 km/h 87 % 0 in /  0.0 mm
07:17 40.1 °F /  4.5 °C 36.5 °F /  2.5 °C 30.3 in /  1027.3 hPa NE 6 mph /  9.7 km/h 13 mph /  20.9 km/h 87 % 0 in /  0.0 mm
07:22 39.9 °F /  4.4 °C 36.3 °F /  2.4 °C 30.3 in /  1027.3 hPa NE 6 mph /  9.7 km/h 16 mph /  25.7 km/h 87 % 0 in /  0.0 mm
07:27 39.9 °F /  4.4 °C 36.7 °F /  2.6 °C 30.3 in /  1027.3 hPa ENE 5 mph /  8.0 km/h 16 mph /  25.7 km/h 88 % 0 in /  0.0 mm
07:32 39.9 °F /  4.4 °C 36.7 °F /  2.6 °C 30.4 in /  1027.7 hPa NNE 9 mph /  14.5 km/h 12 mph /  19.3 km/h 88 % 0 in /  0.0 mm
07:37 39.9 °F /  4.4 °C 36.7 °F /  2.6 °C 30.4 in /  1027.7 hPa NW 3 mph /  4.8 km/h 14 mph /  22.5 km/h 88 % 0 in /  0.0 mm
07:47 39.9 °F /  4.4 °C 36.7 °F /  2.6 °C 30.4 in /  1027.7 hPa North 5 mph /  8.0 km/h 14 mph /  22.5 km/h 88 % 0 in /  0.0 mm
07:52 40.1 °F /  4.5 °C 36.9 °F /  2.7 °C 30.4 in /  1027.7 hPa North 6 mph /  9.7 km/h 14 mph /  22.5 km/h 88 % 0 in /  0.0 mm
07:57 40.3 °F /  4.6 °C 37 °F /  2.8 °C 30.4 in /  1027.7 hPa NW 7 mph /  11.3 km/h 13 mph /  20.9 km/h 88 % 0 in /  0.0 mm
08:02 40.3 °F /  4.6 °C 36.7 °F /  2.6 °C 30.4 in /  1027.7 hPa NNE 7 mph /  11.3 km/h 14 mph /  22.5 km/h 87 % 0 in /  0.0 mm
08:07 40.5 °F /  4.7 °C 36.9 °F /  2.7 °C 30.4 in /  1027.7 hPa North 7 mph /  11.3 km/h 14 mph /  22.5 km/h 87 % 0 in /  0.0 mm
08:12 40.5 °F /  4.7 °C 36.9 °F /  2.7 °C 30.4 in /  1027.7 hPa NNE 6 mph /  9.7 km/h 13 mph /  20.9 km/h 87 % 0 in /  0.0 mm
08:17 40.6 °F /  4.8 °C 37 °F /  2.8 °C 30.4 in /  1027.7 hPa NNE 7 mph /  11.3 km/h 13 mph /  20.9 km/h 87 % 0 in /  0.0 mm
08:22 40.6 °F /  4.8 °C 37 °F /  2.8 °C 30.4 in /  1028.0 hPa NE 11 mph /  17.7 km/h 14 mph /  22.5 km/h 87 % 0 in /  0.0 mm
08:27 40.8 °F /  4.9 °C 37.2 °F /  2.9 °C 30.4 in /  1028.0 hPa NE 9 mph /  14.5 km/h 16 mph /  25.7 km/h 87 % 0 in /  0.0 mm
08:32 41.2 °F /  5.1 °C 37.6 °F /  3.1 °C 30.4 in /  1028.0 hPa NNE 5 mph /  8.0 km/h 16 mph /  25.7 km/h 87 % 0 in /  0.0 mm
08:37 41.4 °F /  5.2 °C 37.6 °F /  3.1 °C 30.4 in /  1028.0 hPa NE 10 mph /  16.1 km/h 15 mph /  24.1 km/h 86 % 0 in /  0.0 mm
08:42 41.5 °F /  5.3 °C 37.6 °F /  3.1 °C 30.4 in /  1028.0 hPa North 9 mph /  14.5 km/h 16 mph /  25.7 km/h 86 % 0 in /  0.0 mm
08:52 42.3 °F /  5.7 °C 38.1 °F /  3.4 °C 30.4 in /  1028.0 hPa NNW 12 mph /  19.3 km/h 19 mph /  30.6 km/h 85 % 0 in /  0.0 mm
08:57 42.6 °F /  5.9 °C 38.1 °F /  3.4 °C 30.4 in /  1028.0 hPa NW 8 mph /  12.9 km/h 24 mph /  38.6 km/h 84 % 0 in /  0.0 mm
09:07 43 °F /  6.1 °C 38.1 °F /  3.4 °C 30.4 in /  1028.0 hPa NE 15 mph /  24.1 km/h 24 mph /  38.6 km/h 83 % 0 in /  0.0 mm
09:12 43.2 °F /  6.2 °C 38.1 °F /  3.4 °C 30.4 in /  1028.0 hPa NNE 9 mph /  14.5 km/h 20 mph /  32.2 km/h 82 % 0 in /  0.0 mm
09:17 43.3 °F /  6.3 °C 37.9 °F /  3.3 °C 30.4 in /  1028.0 hPa NNE 10 mph /  16.1 km/h 20 mph /  32.2 km/h 81 % 0 in /  0.0 mm
09:22 43.5 °F /  6.4 °C 38.5 °F /  3.6 °C 30.4 in /  1028.0 hPa NNE 7 mph /  11.3 km/h 25 mph /  40.2 km/h 82 % 0 in /  0.0 mm
09:27 43.5 °F /  6.4 °C 38.1 °F /  3.4 °C 30.4 in /  1028.0 hPa NE 14 mph /  22.5 km/h 25 mph /  40.2 km/h 81 % 0 in /  0.0 mm
09:32 43.5 °F /  6.4 °C 38.5 °F /  3.6 °C 30.4 in /  1028.0 hPa NNE 3 mph /  4.8 km/h 20 mph /  32.2 km/h 82 % 0 in /  0.0 mm
09:37 43.5 °F /  6.4 °C 38.1 °F /  3.4 °C 30.4 in /  1028.0 hPa NNW 12 mph /  19.3 km/h 21 mph /  33.8 km/h 81 % 0 in /  0.0 mm
09:42 43.5 °F /  6.4 °C 38.1 °F /  3.4 °C 30.4 in /  1028.0 hPa NNE 15 mph /  24.1 km/h 21 mph /  33.8 km/h 81 % 0 in /  0.0 mm
09:47 43.7 °F /  6.5 °C 38.3 °F /  3.5 °C 30.4 in /  1028.0 hPa NNE 13 mph /  20.9 km/h 21 mph /  33.8 km/h 81 % 0 in /  0.0 mm
09:52 43.9 °F /  6.6 °C 38.5 °F /  3.6 °C 30.4 in /  1028.0 hPa North 5 mph /  8.0 km/h 20 mph /  32.2 km/h 81 % 0 in /  0.0 mm
09:57 44.4 °F /  6.9 °C 39.2 °F /  4.0 °C 30.4 in /  1028.0 hPa NE 8 mph /  12.9 km/h 20 mph /  32.2 km/h 82 % 0 in /  0.0 mm
10:02 44.8 °F /  7.1 °C 39.4 °F /  4.1 °C 30.4 in /  1028.3 hPa NNE 15 mph /  24.1 km/h 20 mph /  32.2 km/h 81 % 0 in /  0.0 mm
10:12 44.6 °F /  7.0 °C 39.2 °F /  4.0 °C 30.4 in /  1028.3 hPa NNE 8 mph /  12.9 km/h 20 mph /  32.2 km/h 81 % 0 in /  0.0 mm
10:17 45.3 °F /  7.4 °C 39.9 °F /  4.4 °C 30.4 in /  1028.0 hPa NNE 8 mph /  12.9 km/h 20 mph /  32.2 km/h 81 % 0 in /  0.0 mm
10:22 45.5 °F /  7.5 °C 39.4 °F /  4.1 °C 30.4 in /  1028.0 hPa NE 8 mph /  12.9 km/h 20 mph /  32.2 km/h 79 % 0 in /  0.0 mm
10:27 46.2 °F /  7.9 °C 40.5 °F /  4.7 °C 30.4 in /  1028.0 hPa NW 4 mph /  6.4 km/h 14 mph /  22.5 km/h 80 % 0 in /  0.0 mm
10:32 46.6 °F /  8.1 °C 39.4 °F /  4.1 °C 30.4 in /  1028.0 hPa NE 6 mph /  9.7 km/h 14 mph /  22.5 km/h 76 % 0 in /  0.0 mm
10:37 47.1 °F /  8.4 °C 39.9 °F /  4.4 °C 30.4 in /  1028.0 hPa NE 4 mph /  6.4 km/h 17 mph /  27.4 km/h 76 % 0 in /  0.0 mm
10:42 47.1 °F /  8.4 °C 38.5 °F /  3.6 °C 30.4 in /  1028.3 hPa NNE 13 mph /  20.9 km/h 17 mph /  27.4 km/h 72 % 0 in /  0.0 mm
10:47 47.5 °F /  8.6 °C 39.2 °F /  4.0 °C 30.4 in /  1028.0 hPa NE 6 mph /  9.7 km/h 19 mph /  30.6 km/h 73 % 0 in /  0.0 mm
10:52 48 °F /  8.9 °C 39.4 °F /  4.1 °C 30.4 in /  1028.3 hPa ENE 9 mph /  14.5 km/h 19 mph /  30.6 km/h 72 % 0 in /  0.0 mm
10:57 47.8 °F /  8.8 °C 37.8 °F /  3.2 °C 30.4 in /  1028.3 hPa NNE 13 mph /  20.9 km/h 16 mph /  25.7 km/h 68 % 0 in /  0.0 mm
11:02 47.5 °F /  8.6 °C 37.8 °F /  3.2 °C 30.4 in /  1028.3 hPa NE 18 mph /  29.0 km/h 18 mph /  29.0 km/h 69 % 0 in /  0.0 mm
11:07 47.7 °F /  8.7 °C 37.6 °F /  3.1 °C 30.4 in /  1028.3 hPa NNE 13 mph /  20.9 km/h 21 mph /  33.8 km/h 68 % 0 in /  0.0 mm
11:12 47.8 °F /  8.8 °C 37.8 °F /  3.2 °C 30.4 in /  1028.3 hPa NNE 14 mph /  22.5 km/h 21 mph /  33.8 km/h 68 % 0 in /  0.0 mm
11:17 48.2 °F /  9.0 °C 37.8 °F /  3.2 °C 30.4 in /  1028.0 hPa NE 14 mph /  22.5 km/h 21 mph /  33.8 km/h 67 % 0 in /  0.0 mm
11:22 48.6 °F /  9.2 °C 37.4 °F /  3.0 °C 30.4 in /  1028.0 hPa NNE 13 mph /  20.9 km/h 20 mph /  32.2 km/h 65 % 0 in /  0.0 mm
11:27 48.9 °F /  9.4 °C 38.1 °F /  3.4 °C 30.4 in /  1028.0 hPa NE 8 mph /  12.9 km/h 20 mph /  32.2 km/h 66 % 0 in /  0.0 mm
11:32 48.9 °F /  9.4 °C 37.8 °F /  3.2 °C 30.4 in /  1028.0 hPa ENE 11 mph /  17.7 km/h 19 mph /  30.6 km/h 65 % 0 in /  0.0 mm
11:37 49.1 °F /  9.5 °C 36.7 °F /  2.6 °C 30.4 in /  1027.7 hPa NE 17 mph /  27.4 km/h 20 mph /  32.2 km/h 62 % 0 in /  0.0 mm
11:42 48.9 °F /  9.4 °C 35.6 °F /  2.0 °C 30.4 in /  1028.0 hPa NNE 13 mph /  20.9 km/h 21 mph /  33.8 km/h 60 % 0 in /  0.0 mm
11:47 48.9 °F /  9.4 °C 34.9 °F /  1.6 °C 30.4 in /  1028.0 hPa NE 17 mph /  27.4 km/h 24 mph /  38.6 km/h 58 % 0 in /  0.0 mm
11:52 49.5 °F /  9.7 °C 36.1 °F /  2.3 °C 30.4 in /  1027.7 hPa NE 8 mph /  12.9 km/h 25 mph /  40.2 km/h 60 % 0 in /  0.0 mm
11:57 49.8 °F /  9.9 °C 36.1 °F /  2.3 °C 30.4 in /  1027.7 hPa NE 9 mph /  14.5 km/h 25 mph /  40.2 km/h 59 % 0 in /  0.0 mm
12:02 50 °F /  10.0 °C 35.8 °F /  2.1 °C 30.4 in /  1028.0 hPa North 18 mph /  29.0 km/h 25 mph /  40.2 km/h 58 % 0 in /  0.0 mm
12:07 50.2 °F /  10.1 °C 36.3 °F /  2.4 °C 30.4 in /  1028.0 hPa NE 19 mph /  30.6 km/h 21 mph /  33.8 km/h 59 % 0 in /  0.0 mm
12:12 50.5 °F /  10.3 °C 36 °F /  2.2 °C 30.4 in /  1028.0 hPa NNE 25 mph /  40.2 km/h 25 mph /  40.2 km/h 57 % 0 in /  0.0 mm
12:17 50.4 °F /  10.2 °C 36.1 °F /  2.3 °C 30.4 in /  1028.0 hPa NE 21 mph /  33.8 km/h 26 mph /  41.8 km/h 58 % 0 in /  0.0 mm
12:22 50.2 °F /  10.1 °C 36 °F /  2.2 °C 30.4 in /  1028.0 hPa ENE 12 mph /  19.3 km/h 26 mph /  41.8 km/h 58 % 0 in /  0.0 mm
12:32 50.4 °F /  10.2 °C 34.9 °F /  1.6 °C 30.4 in /  1027.7 hPa NNW 6 mph /  9.7 km/h 24 mph /  38.6 km/h 55 % 0 in /  0.0 mm
12:42 51.1 °F /  10.6 °C 36.3 °F /  2.4 °C 30.4 in /  1027.7 hPa NNW 9 mph /  14.5 km/h 25 mph /  40.2 km/h 57 % 0 in /  0.0 mm
12:47 51.4 °F /  10.8 °C 36.3 °F /  2.4 °C 30.4 in /  1027.7 hPa NNW 11 mph /  17.7 km/h 25 mph /  40.2 km/h 56 % 0 in /  0.0 mm
12:52 51.8 °F /  11.0 °C 36.7 °F /  2.6 °C 30.4 in /  1027.7 hPa NNE 10 mph /  16.1 km/h 22 mph /  35.4 km/h 56 % 0 in /  0.0 mm
12:57 51.4 °F /  10.8 °C 35.8 °F /  2.1 °C 30.4 in /  1027.7 hPa NE 19 mph /  30.6 km/h 22 mph /  35.4 km/h 55 % 0 in /  0.0 mm
13:02 51.4 °F /  10.8 °C 34.9 °F /  1.6 °C 30.4 in /  1027.7 hPa NE 10 mph /  16.1 km/h 22 mph /  35.4 km/h 53 % 0 in /  0.0 mm
13:07 51.6 °F /  10.9 °C 36.5 °F /  2.5 °C 30.4 in /  1027.7 hPa ENE 15 mph /  24.1 km/h 24 mph /  38.6 km/h 56 % 0 in /  0.0 mm
13:12 51.6 °F /  10.9 °C 35.1 °F /  1.7 °C 30.4 in /  1027.7 hPa NE 12 mph /  19.3 km/h 24 mph /  38.6 km/h 53 % 0 in /  0.0 mm
13:17 52 °F /  11.1 °C 36.3 °F /  2.4 °C 30.4 in /  1027.7 hPa NW 6 mph /  9.7 km/h 23 mph /  37.0 km/h 55 % 0 in /  0.0 mm
13:22 52.3 °F /  11.3 °C 37 °F /  2.8 °C 30.4 in /  1027.7 hPa NE 7 mph /  11.3 km/h 23 mph /  37.0 km/h 56 % 0 in /  0.0 mm
13:27 52.5 °F /  11.4 °C 36.9 °F /  2.7 °C 30.4 in /  1027.7 hPa NNE 13 mph /  20.9 km/h 23 mph /  37.0 km/h 55 % 0 in /  0.0 mm
13:32 52.7 °F /  11.5 °C 36.5 °F /  2.5 °C 30.4 in /  1027.7 hPa NE 13 mph /  20.9 km/h 22 mph /  35.4 km/h 54 % 0 in /  0.0 mm
13:37 52.5 °F /  11.4 °C 36.3 °F /  2.4 °C 30.4 in /  1027.7 hPa NNE 10 mph /  16.1 km/h 22 mph /  35.4 km/h 54 % 0 in /  0.0 mm
13:42 52.9 °F /  11.6 °C 37.6 °F /  3.1 °C 30.4 in /  1027.7 hPa ENE 12 mph /  19.3 km/h 22 mph /  35.4 km/h 56 % 0 in /  0.0 mm
13:47 52.5 °F /  11.4 °C 36.9 °F /  2.7 °C 30.4 in /  1027.7 hPa North 12 mph /  19.3 km/h 20 mph /  32.2 km/h 55 % 0 in /  0.0 mm
13:52 53.1 °F /  11.7 °C 37.4 °F /  3.0 °C 30.4 in /  1027.7 hPa North 13 mph /  20.9 km/h 19 mph /  30.6 km/h 55 % 0 in /  0.0 mm
13:57 52.7 °F /  11.5 °C 37.9 °F /  3.3 °C 30.4 in /  1027.7 hPa North 13 mph /  20.9 km/h 19 mph /  30.6 km/h 57 % 0 in /  0.0 mm
14:02 53.2 °F /  11.8 °C 38.8 °F /  3.8 °C 30.4 in /  1027.7 hPa NNW 7 mph /  11.3 km/h 18 mph /  29.0 km/h 58 % 0 in /  0.0 mm
14:07 53.2 °F /  11.8 °C 37.4 °F /  3.0 °C 30.4 in /  1027.7 hPa NNE 12 mph /  19.3 km/h 19 mph /  30.6 km/h 55 % 0 in /  0.0 mm
14:12 53.1 °F /  11.7 °C 37.4 °F /  3.0 °C 30.4 in /  1027.7 hPa NE 8 mph /  12.9 km/h 19 mph /  30.6 km/h 55 % 0 in /  0.0 mm
14:17 53.1 °F /  11.7 °C 37.4 °F /  3.0 °C 30.4 in /  1027.7 hPa NE 7 mph /  11.3 km/h 22 mph /  35.4 km/h 55 % 0 in /  0.0 mm
14:22 53.1 °F /  11.7 °C 37.8 °F /  3.2 °C 30.3 in /  1027.3 hPa North 6 mph /  9.7 km/h 22 mph /  35.4 km/h 56 % 0 in /  0.0 mm
14:27 53.2 °F /  11.8 °C 37 °F /  2.8 °C 30.3 in /  1027.3 hPa North 11 mph /  17.7 km/h 22 mph /  35.4 km/h 54 % 0 in /  0.0 mm
14:32 53.2 °F /  11.8 °C 38.5 °F /  3.6 °C 30.3 in /  1027.3 hPa NE 17 mph /  27.4 km/h 22 mph /  35.4 km/h 57 % 0 in /  0.0 mm
14:37 53.2 °F /  11.8 °C 37.9 °F /  3.3 °C 30.3 in /  1027.3 hPa North 7 mph /  11.3 km/h 25 mph /  40.2 km/h 56 % 0 in /  0.0 mm
14:42 53.4 °F /  11.9 °C 38.1 °F /  3.4 °C 30.3 in /  1027.3 hPa NE 11 mph /  17.7 km/h 25 mph /  40.2 km/h 56 % 0 in /  0.0 mm
14:47 53.2 °F /  11.8 °C 37.4 °F /  3.0 °C 30.3 in /  1027.3 hPa NNE 11 mph /  17.7 km/h 20 mph /  32.2 km/h 55 % 0 in /  0.0 mm
14:52 53.4 °F /  11.9 °C 39 °F /  3.9 °C 30.3 in /  1027.3 hPa NNE 4 mph /  6.4 km/h 19 mph /  30.6 km/h 58 % 0 in /  0.0 mm
14:57 53.4 °F /  11.9 °C 38.1 °F /  3.4 °C 30.3 in /  1027.3 hPa North 11 mph /  17.7 km/h 19 mph /  30.6 km/h 56 % 0 in /  0.0 mm
15:02 53.4 °F /  11.9 °C 37.6 °F /  3.1 °C 30.3 in /  1027.3 hPa NNE 18 mph /  29.0 km/h 22 mph /  35.4 km/h 55 % 0 in /  0.0 mm
15:07 53.2 °F /  11.8 °C 38.5 °F /  3.6 °C 30.3 in /  1027.3 hPa North 11 mph /  17.7 km/h 22 mph /  35.4 km/h 57 % 0 in /  0.0 mm
15:12 53.2 °F /  11.8 °C 38.5 °F /  3.6 °C 30.3 in /  1027.3 hPa NNE 6 mph /  9.7 km/h 22 mph /  35.4 km/h 57 % 0 in /  0.0 mm
15:17 53.4 °F /  11.9 °C 38.5 °F /  3.6 °C 30.3 in /  1027.3 hPa NNE 16 mph /  25.7 km/h 22 mph /  35.4 km/h 57 % 0 in /  0.0 mm
15:22 53.6 °F /  12.0 °C 38.7 °F /  3.7 °C 30.3 in /  1027.0 hPa NNE 10 mph /  16.1 km/h 19 mph /  30.6 km/h 57 % 0 in /  0.0 mm
15:27 53.4 °F /  11.9 °C 38.5 °F /  3.6 °C 30.3 in /  1027.0 hPa NNE 12 mph /  19.3 km/h 20 mph /  32.2 km/h 57 % 0 in /  0.0 mm
15:32 53.2 °F /  11.8 °C 38.5 °F /  3.6 °C 30.3 in /  1027.0 hPa NNE 16 mph /  25.7 km/h 23 mph /  37.0 km/h 57 % 0 in /  0.0 mm
15:37 53.1 °F /  11.7 °C 37.4 °F /  3.0 °C 30.3 in /  1027.0 hPa NNE 16 mph /  25.7 km/h 23 mph /  37.0 km/h 55 % 0 in /  0.0 mm
15:42 53.1 °F /  11.7 °C 37.8 °F /  3.2 °C 30.3 in /  1027.0 hPa ENE 10 mph /  16.1 km/h 23 mph /  37.0 km/h 56 % 0 in /  0.0 mm
15:47 53.1 °F /  11.7 °C 38.3 °F /  3.5 °C 30.3 in /  1027.0 hPa ENE 12 mph /  19.3 km/h 23 mph /  37.0 km/h 57 % 0 in /  0.0 mm
15:52 53.2 °F /  11.8 °C 38.8 °F /  3.8 °C 30.3 in /  1027.0 hPa NNW 16 mph /  25.7 km/h 23 mph /  37.0 km/h 58 % 0 in /  0.0 mm
15:57 53.4 °F /  11.9 °C 39.4 °F /  4.1 °C 30.3 in /  1027.0 hPa NNW 7 mph /  11.3 km/h 19 mph /  30.6 km/h 59 % 0 in /  0.0 mm
16:02 53.1 °F /  11.7 °C 39.6 °F /  4.2 °C 30.3 in /  1027.0 hPa North 12 mph /  19.3 km/h 19 mph /  30.6 km/h 60 % 0 in /  0.0 mm
16:07 52.9 °F /  11.6 °C 39.4 °F /  4.1 °C 30.3 in /  1027.0 hPa North 8 mph /  12.9 km/h 23 mph /  37.0 km/h 60 % 0 in /  0.0 mm
16:12 53.2 °F /  11.8 °C 39.7 °F /  4.3 °C 30.3 in /  1027.0 hPa NNE 8 mph /  12.9 km/h 23 mph /  37.0 km/h 60 % 0 in /  0.0 mm
16:17 53.1 °F /  11.7 °C 39.6 °F /  4.2 °C 30.3 in /  1027.0 hPa NE 17 mph /  27.4 km/h 20 mph /  32.2 km/h 60 % 0 in /  0.0 mm
16:22 52.3 °F /  11.3 °C 39.4 °F /  4.1 °C 30.3 in /  1027.0 hPa NNW 12 mph /  19.3 km/h 20 mph /  32.2 km/h 61 % 0 in /  0.0 mm
16:27 53.1 °F /  11.7 °C 39.6 °F /  4.2 °C 30.3 in /  1027.0 hPa NNE 11 mph /  17.7 km/h 20 mph /  32.2 km/h 60 % 0 in /  0.0 mm
16:32 53.1 °F /  11.7 °C 39.6 °F /  4.2 °C 30.3 in /  1027.0 hPa NNE 12 mph /  19.3 km/h 20 mph /  32.2 km/h 60 % 0 in /  0.0 mm
16:37 52.5 °F /  11.4 °C 39 °F /  3.9 °C 30.3 in /  1027.0 hPa North 6 mph /  9.7 km/h 22 mph /  35.4 km/h 60 % 0 in /  0.0 mm
16:42 52.5 °F /  11.4 °C 39 °F /  3.9 °C 30.3 in /  1027.0 hPa North 13 mph /  20.9 km/h 22 mph /  35.4 km/h 60 % 0 in /  0.0 mm
16:47 52 °F /  11.1 °C 39 °F /  3.9 °C 30.3 in /  1027.0 hPa NNE 8 mph /  12.9 km/h 22 mph /  35.4 km/h 61 % 0 in /  0.0 mm
16:52 51.8 °F /  11.0 °C 38.3 °F /  3.5 °C 30.3 in /  1027.0 hPa NNE 12 mph /  19.3 km/h 20 mph /  32.2 km/h 60 % 0 in /  0.0 mm
16:57 51.6 °F /  10.9 °C 38.7 °F /  3.7 °C 30.3 in /  1027.0 hPa NNW 9 mph /  14.5 km/h 20 mph /  32.2 km/h 61 % 0 in /  0.0 mm
17:02 52 °F /  11.1 °C 39 °F /  3.9 °C 30.3 in /  1027.0 hPa NW 10 mph /  16.1 km/h 20 mph /  32.2 km/h 61 % 0 in /  0.0 mm
17:07 51.6 °F /  10.9 °C 38.7 °F /  3.7 °C 30.3 in /  1027.0 hPa North 6 mph /  9.7 km/h 21 mph /  33.8 km/h 61 % 0 in /  0.0 mm
17:12 52.2 °F /  11.2 °C 39.2 °F /  4.0 °C 30.3 in /  1027.0 hPa NE 9 mph /  14.5 km/h 21 mph /  33.8 km/h 61 % 0 in /  0.0 mm
17:17 52.2 °F /  11.2 °C 39.2 °F /  4.0 °C 30.3 in /  1027.0 hPa North 13 mph /  20.9 km/h 21 mph /  33.8 km/h 61 % 0 in /  0.0 mm
17:22 52 °F /  11.1 °C 38.5 °F /  3.6 °C 30.3 in /  1027.0 hPa NNE 12 mph /  19.3 km/h 19 mph /  30.6 km/h 60 % 0 in /  0.0 mm
17:27 51.4 °F /  10.8 °C 38.5 °F /  3.6 °C 30.3 in /  1027.0 hPa NW 12 mph /  19.3 km/h 20 mph /  32.2 km/h 61 % 0 in /  0.0 mm
17:32 51.4 °F /  10.8 °C 38.8 °F /  3.8 °C 30.3 in /  1027.0 hPa NNE 13 mph /  20.9 km/h 20 mph /  32.2 km/h 62 % 0 in /  0.0 mm
17:37 51.6 °F /  10.9 °C 39 °F /  3.9 °C 30.3 in /  1027.0 hPa NE 12 mph /  19.3 km/h 22 mph /  35.4 km/h 62 % 0 in /  0.0 mm
17:42 51.6 °F /  10.9 °C 39 °F /  3.9 °C 30.3 in /  1027.0 hPa NNE 10 mph /  16.1 km/h 22 mph /  35.4 km/h 62 % 0 in /  0.0 mm
17:47 51.8 °F /  11.0 °C 39.2 °F /  4.0 °C 30.3 in /  1027.0 hPa NNE 10 mph /  16.1 km/h 22 mph /  35.4 km/h 62 % 0 in /  0.0 mm
17:52 51.6 °F /  10.9 °C 39 °F /  3.9 °C 30.3 in /  1027.0 hPa NW 4 mph /  6.4 km/h 18 mph /  29.0 km/h 62 % 0 in /  0.0 mm
17:57 51.3 °F /  10.7 °C 39 °F /  3.9 °C 30.3 in /  1027.0 hPa NNW 6 mph /  9.7 km/h 18 mph /  29.0 km/h 63 % 0 in /  0.0 mm
18:02 51.6 °F /  10.9 °C 39 °F /  3.9 °C 30.3 in /  1027.0 hPa NNW 4 mph /  6.4 km/h 16 mph /  25.7 km/h 62 % 0 in /  0.0 mm
18:07 51.6 °F /  10.9 °C 38.7 °F /  3.7 °C 30.3 in /  1027.0 hPa NNE 9 mph /  14.5 km/h 18 mph /  29.0 km/h 61 % 0 in /  0.0 mm
18:12 51.3 °F /  10.7 °C 38.7 °F /  3.7 °C 30.3 in /  1027.0 hPa NNE 13 mph /  20.9 km/h 23 mph /  37.0 km/h 62 % 0 in /  0.0 mm
18:17 51.3 °F /  10.7 °C 39 °F /  3.9 °C 30.3 in /  1027.3 hPa NE 15 mph /  24.1 km/h 23 mph /  37.0 km/h 63 % 0 in /  0.0 mm
18:22 51.1 °F /  10.6 °C 38.5 °F /  3.6 °C 30.3 in /  1027.0 hPa NNW 6 mph /  9.7 km/h 21 mph /  33.8 km/h 62 % 0 in /  0.0 mm
18:32 51.1 °F /  10.6 °C 38.5 °F /  3.6 °C 30.3 in /  1027.3 hPa SSW 5 mph /  8.0 km/h 20 mph /  32.2 km/h 62 % 0 in /  0.0 mm
18:37 50.7 °F /  10.4 °C 38.1 °F /  3.4 °C 30.3 in /  1027.3 hPa NE 9 mph /  14.5 km/h 18 mph /  29.0 km/h 62 % 0 in /  0.0 mm
18:42 50.7 °F /  10.4 °C 38.7 °F /  3.7 °C 30.3 in /  1027.3 hPa NE 12 mph /  19.3 km/h 15 mph /  24.1 km/h 63 % 0 in /  0.0 mm
18:52 50.4 °F /  10.2 °C 39 °F /  3.9 °C 30.3 in /  1027.3 hPa NNE 10 mph /  16.1 km/h 16 mph /  25.7 km/h 65 % 0 in /  0.0 mm
18:57 50.2 °F /  10.1 °C 38.8 °F /  3.8 °C 30.3 in /  1027.3 hPa North 10 mph /  16.1 km/h 18 mph /  29.0 km/h 65 % 0 in /  0.0 mm
19:02 50.2 °F /  10.1 °C 39.2 °F /  4.0 °C 30.3 in /  1027.3 hPa NNW 5 mph /  8.0 km/h 18 mph /  29.0 km/h 66 % 0 in /  0.0 mm
19:07 50.4 °F /  10.2 °C 39 °F /  3.9 °C 30.3 in /  1027.3 hPa NNE 5 mph /  8.0 km/h 18 mph /  29.0 km/h 65 % 0 in /  0.0 mm
19:12 50.4 °F /  10.2 °C 38.7 °F /  3.7 °C 30.3 in /  1027.3 hPa NNE 9 mph /  14.5 km/h 17 mph /  27.4 km/h 64 % 0 in /  0.0 mm
19:17 50.4 °F /  10.2 °C 38.7 °F /  3.7 °C 30.3 in /  1027.3 hPa North 4 mph /  6.4 km/h 16 mph /  25.7 km/h 64 % 0 in /  0.0 mm
19:22 50.5 °F /  10.3 °C 38.8 °F /  3.8 °C 30.3 in /  1027.3 hPa North 7 mph /  11.3 km/h 16 mph /  25.7 km/h 64 % 0 in /  0.0 mm
19:27 50.4 °F /  10.2 °C 39 °F /  3.9 °C 30.3 in /  1027.3 hPa North 5 mph /  8.0 km/h 16 mph /  25.7 km/h 65 % 0 in /  0.0 mm
19:32 49.8 °F /  9.9 °C 38.5 °F /  3.6 °C 30.3 in /  1027.3 hPa NE 9 mph /  14.5 km/h 16 mph /  25.7 km/h 65 % 0 in /  0.0 mm
19:37 49.6 °F /  9.8 °C 38.7 °F /  3.7 °C 30.3 in /  1027.3 hPa NW 4 mph /  6.4 km/h 16 mph /  25.7 km/h 66 % 0 in /  0.0 mm
19:42 49.5 °F /  9.7 °C 39 °F /  3.9 °C 30.3 in /  1027.3 hPa North 10 mph /  16.1 km/h 16 mph /  25.7 km/h 67 % 0 in /  0.0 mm
19:47 49.3 °F /  9.6 °C 38.5 °F /  3.6 °C 30.3 in /  1027.3 hPa ENE 5 mph /  8.0 km/h 14 mph /  22.5 km/h 66 % 0 in /  0.0 mm
19:57 48.7 °F /  9.3 °C 38.3 °F /  3.5 °C 30.3 in /  1027.3 hPa North 5 mph /  8.0 km/h 18 mph /  29.0 km/h 67 % 0 in /  0.0 mm
20:02 48.6 °F /  9.2 °C 38.5 °F /  3.6 °C 30.3 in /  1027.3 hPa North 4 mph /  6.4 km/h 16 mph /  25.7 km/h 68 % 0 in /  0.0 mm
20:07 48.4 °F /  9.1 °C 38.3 °F /  3.5 °C 30.3 in /  1027.3 hPa NNE 3 mph /  4.8 km/h 16 mph /  25.7 km/h 68 % 0 in /  0.0 mm
20:12 48 °F /  8.9 °C 38.3 °F /  3.5 °C 30.3 in /  1027.3 hPa NNW 3 mph /  4.8 km/h 16 mph /  25.7 km/h 69 % 0 in /  0.0 mm
20:17 48 °F /  8.9 °C 38.3 °F /  3.5 °C 30.3 in /  1027.3 hPa NNE 7 mph /  11.3 km/h 16 mph /  25.7 km/h 69 % 0 in /  0.0 mm
20:22 47.7 °F /  8.7 °C 38.3 °F /  3.5 °C 30.3 in /  1027.3 hPa North 7 mph /  11.3 km/h 14 mph /  22.5 km/h 70 % 0 in /  0.0 mm
20:27 47.7 °F /  8.7 °C 38.3 °F /  3.5 °C 30.3 in /  1027.3 hPa NNE 16 mph /  25.7 km/h 17 mph /  27.4 km/h 70 % 0 in /  0.0 mm
20:32 47.7 °F /  8.7 °C 37.9 °F /  3.3 °C 30.3 in /  1027.3 hPa NE 5 mph /  8.0 km/h 18 mph /  29.0 km/h 69 % 0 in /  0.0 mm
20:37 47.7 °F /  8.7 °C 37.9 °F /  3.3 °C 30.3 in /  1027.3 hPa NNE 4 mph /  6.4 km/h 18 mph /  29.0 km/h 69 % 0 in /  0.0 mm
20:42 47.7 °F /  8.7 °C 38.3 °F /  3.5 °C 30.3 in /  1027.3 hPa NNE 6 mph /  9.7 km/h 18 mph /  29.0 km/h 70 % 0 in /  0.0 mm
20:47 47.3 °F /  8.5 °C 37.9 °F /  3.3 °C 30.3 in /  1027.3 hPa NNE 5 mph /  8.0 km/h 16 mph /  25.7 km/h 70 % 0 in /  0.0 mm
20:52 46.9 °F /  8.3 °C 38.1 °F /  3.4 °C 30.3 in /  1027.3 hPa NNE 7 mph /  11.3 km/h 13 mph /  20.9 km/h 71 % 0 in /  0.0 mm
20:57 46.8 °F /  8.2 °C 38.3 °F /  3.5 °C 30.3 in /  1027.3 hPa NNE 5 mph /  8.0 km/h 10 mph /  16.1 km/h 72 % 0 in /  0.0 mm
21:02 46.6 °F /  8.1 °C 38.1 °F /  3.4 °C 30.4 in /  1027.7 hPa NE 6 mph /  9.7 km/h 10 mph /  16.1 km/h 72 % 0 in /  0.0 mm
21:07 46.6 °F /  8.1 °C 38.1 °F /  3.4 °C 30.4 in /  1027.7 hPa North 3 mph /  4.8 km/h 9 mph /  14.5 km/h 72 % 0 in /  0.0 mm
21:12 46.2 °F /  7.9 °C 38.1 °F /  3.4 °C 30.4 in /  1027.7 hPa NE 7 mph /  11.3 km/h 9 mph /  14.5 km/h 73 % 0 in /  0.0 mm
21:17 46.2 °F /  7.9 °C 38.1 °F /  3.4 °C 30.4 in /  1027.7 hPa NE 7 mph /  11.3 km/h 9 mph /  14.5 km/h 73 % 0 in /  0.0 mm
21:22 46 °F /  7.8 °C 37.9 °F /  3.3 °C 30.4 in /  1027.7 hPa NNW 1 mph /  1.6 km/h 8 mph /  12.9 km/h 73 % 0 in /  0.0 mm
21:27 46 °F /  7.8 °C 37.9 °F /  3.3 °C 30.4 in /  1027.7 hPa NNE 3 mph /  4.8 km/h 8 mph /  12.9 km/h 73 % 0 in /  0.0 mm
21:32 45.9 °F /  7.7 °C 38.1 °F /  3.4 °C 30.4 in /  1027.7 hPa NE 4 mph /  6.4 km/h 10 mph /  16.1 km/h 74 % 0 in /  0.0 mm
21:42 45.7 °F /  7.6 °C 37.9 °F /  3.3 °C 30.4 in /  1027.7 hPa NNE 7 mph /  11.3 km/h 8 mph /  12.9 km/h 74 % 0 in /  0.0 mm
21:47 45.5 °F /  7.5 °C 38.1 °F /  3.4 °C 30.4 in /  1027.7 hPa North 3 mph /  4.8 km/h 8 mph /  12.9 km/h 75 % 0 in /  0.0 mm
21:52 45.5 °F /  7.5 °C 38.1 °F /  3.4 °C 30.4 in /  1027.7 hPa North 3 mph /  4.8 km/h 10 mph /  16.1 km/h 75 % 0 in /  0.0 mm
21:57 45.5 °F /  7.5 °C 38.1 °F /  3.4 °C 30.4 in /  1027.7 hPa NE 1 mph /  1.6 km/h 10 mph /  16.1 km/h 75 % 0 in /  0.0 mm
22:02 45.5 °F /  7.5 °C 38.1 °F /  3.4 °C 30.4 in /  1027.7 hPa NE 2 mph /  3.2 km/h 10 mph /  16.1 km/h 75 % 0 in /  0.0 mm
22:07 45.5 °F /  7.5 °C 38.1 °F /  3.4 °C 30.4 in /  1027.7 hPa NE 2 mph /  3.2 km/h 9 mph /  14.5 km/h 75 % 0 in /  0.0 mm
22:12 45.5 °F /  7.5 °C 38.1 °F /  3.4 °C 30.4 in /  1027.7 hPa NNE 5 mph /  8.0 km/h 9 mph /  14.5 km/h 75 % 0 in /  0.0 mm
22:17 45.1 °F /  7.3 °C 37.8 °F /  3.2 °C 30.4 in /  1027.7 hPa NNE 4 mph /  6.4 km/h 9 mph /  14.5 km/h 75 % 0 in /  0.0 mm
22:22 45.1 °F /  7.3 °C 37.9 °F /  3.3 °C 30.4 in /  1028.0 hPa NE 2 mph /  3.2 km/h 9 mph /  14.5 km/h 76 % 0 in /  0.0 mm
22:27 45 °F /  7.2 °C 37.9 °F /  3.3 °C 30.4 in /  1028.0 hPa North 3 mph /  4.8 km/h 9 mph /  14.5 km/h 76 % 0 in /  0.0 mm
22:32 45 °F /  7.2 °C 37.9 °F /  3.3 °C 30.4 in /  1028.0 hPa Calm   9 mph /  14.5 km/h 76 % 0 in /  0.0 mm
22:37 44.8 °F /  7.1 °C 37.9 °F /  3.3 °C 30.4 in /  1028.0 hPa NNE 2 mph /  3.2 km/h 7 mph /  11.3 km/h 77 % 0 in /  0.0 mm
22:42 44.8 °F /  7.1 °C 37.9 °F /  3.3 °C 30.4 in /  1028.0 hPa NNW 1 mph /  1.6 km/h 8 mph /  12.9 km/h 77 % 0 in /  0.0 mm
22:52 44.2 °F /  6.8 °C 37.6 °F /  3.1 °C 30.4 in /  1028.0 hPa NE 5 mph /  8.0 km/h 8 mph /  12.9 km/h 77 % 0 in /  0.0 mm
22:57 44.2 °F /  6.8 °C 37.8 °F /  3.2 °C 30.4 in /  1028.0 hPa NNW 4 mph /  6.4 km/h 6 mph /  9.7 km/h 78 % 0 in /  0.0 mm
23:02 44.2 °F /  6.8 °C 37.8 °F /  3.2 °C 30.4 in /  1028.0 hPa Calm   6 mph /  9.7 km/h 78 % 0 in /  0.0 mm
23:12 43.9 °F /  6.6 °C 37.4 °F /  3.0 °C 30.4 in /  1028.0 hPa WNW 1 mph /  1.6 km/h 7 mph /  11.3 km/h 78 % 0 in /  0.0 mm
23:17 43.5 °F /  6.4 °C 37 °F /  2.8 °C 30.4 in /  1028.0 hPa NW 1 mph /  1.6 km/h 3 mph /  4.8 km/h 78 % 0 in /  0.0 mm
23:22 43.3 °F /  6.3 °C 37.2 °F /  2.9 °C 30.4 in /  1028.0 hPa Calm   3 mph /  4.8 km/h 79 % 0 in /  0.0 mm
23:27 43.3 °F /  6.3 °C 37.6 °F /  3.1 °C 30.4 in /  1028.0 hPa NW 2 mph /  3.2 km/h 3 mph /  4.8 km/h 80 % 0 in /  0.0 mm
23:32 43.3 °F /  6.3 °C 37.6 °F /  3.1 °C 30.4 in /  1028.0 hPa North 1 mph /  1.6 km/h 3 mph /  4.8 km/h 80 % 0 in /  0.0 mm
23:37 43.2 °F /  6.2 °C 37.4 °F /  3.0 °C 30.4 in /  1028.0 hPa Calm   3 mph /  4.8 km/h 80 % 0 in /  0.0 mm
23:42 43 °F /  6.1 °C 37.2 °F /  2.9 °C 30.4 in /  1028.0 hPa NNW 3 mph /  4.8 km/h 3 mph /  4.8 km/h 80 % 0 in /  0.0 mm
23:47 43.2 °F /  6.2 °C 37.4 °F /  3.0 °C 30.4 in /  1028.0 hPa Calm   5 mph /  8.0 km/h 80 % 0 in /  0.0 mm
23:52 43 °F /  6.1 °C 37.2 °F /  2.9 °C 30.4 in /  1028.0 hPa NNW 1 mph /  1.6 km/h 5 mph /  8.0 km/h 80 % 0 in /  0.0 mm
23:57 42.8 °F /  6.0 °C 37 °F /  2.8 °C 30.4 in /  1028.0 hPa NNW 1 mph /  1.6 km/h 5 mph /  8.0 km/h 80 % 0 in /  0.0 mm
Meteo18
Compliments of Weather Underground - 4 mb

Script developed by  Jim McMurry - jmcmurry@mwt.net Adapted for the template by  Wim van der Kuil - Leuven-Template.eu

You find our weather info also at:

European Weather Network

Weather Underground

Equipment we use:

Weather-station
Davis Vue

Weather-program
Meteohub

Weather-server
Raspberry PI 2 B+

Provider
1 and 1

Davis Vue

Meteohub

Raspberry PI 2 B+

1 and 1